As Olivia — DYQC — position and weather

sailwx.info

Track history (hours):
 
Tides and Currents Weather Stations Pressure Air Temp Water Temp Dewpoint Dewpoint Depression Visibility Wind Speed Wind Dir Waves Ship Positions

As Olivia

Last reported at 2018-Feb-14 22:31 UTC. Time now 2018-Feb-20 04:20 UTC.
Position N 45°06' E 036°37'.

Length 146 m; draft 6.1 m.

Type: Ship. MMSI: 548767000.

Date/timePositionNaut miles runAvg speedWind from/ knotsBaromVisibWave heightAir tempDewpointWater temp
2018-Feb-14 22:31N 45°06' E 036°37'0 3.0
2018-Feb-14 22:30N 45°06' E 036°37'41412.3
2018-Feb-13 12:49N 41°01' E 029°00'310.8
2018-Feb-13 12:30N 40°58' E 028°60'612.2
2018-Feb-13 12:00N 40°52' E 028°56'3 2.7
2018-Feb-13 11:03N 40°50' E 028°55'0 1.3
2018-Feb-13 10:58N 40°50' E 028°55'1 1.0
2018-Feb-13 10:27N 40°50' E 028°56'1 1.9
2018-Feb-13 09:58N 40°49' E 028°56'1 2.8
2018-Feb-13 09:28N 40°49' E 028°54'1 1.1
2018-Feb-13 08:53N 40°49' E 028°54'0 0.8
2018-Feb-13 08:26N 40°49' E 028°54'0 0.6
2018-Feb-13 07:54N 40°49' E 028°54'1 1.2
2018-Feb-13 07:23N 40°50' E 028°55'0 0.9
2018-Feb-13 06:57N 40°50' E 028°55'  
2018-Feb-10 19:00N 36°19' E 014°52'714.2
2018-Feb-10 18:30N 36°22' E 014°44'714.4
2018-Feb-10 18:00N 36°26' E 014°36'714.7
2018-Feb-10 17:31N 36°29' E 014°28'714.6
2018-Feb-10 17:00N 36°33' E 014°20'714.8
2018-Feb-10 16:30N 36°36' E 014°12'  
2018-Feb-06 00:47N 37°07' E 004°21'413.6
2018-Feb-06 00:29N 37°07' E 004°16'1313.6
2018-Feb-05 23:30N 37°09' E 003°60'612.9
2018-Feb-05 23:00N 37°09' E 003°52'612.6
2018-Feb-05 22:30N 37°08' E 003°44'  
Track history (hours):
 
Tides and Currents Weather Stations Pressure Air Temp Water Temp Dewpoint Dewpoint Depression Visibility Wind Speed Wind Dir Waves Ship Positions

As Olivia

Last reported at 2018-Feb-14 22:31 UTC. Time now 2018-Feb-20 04:20 UTC.
Position N 45°06' E 036°37'.

Length 146 m; draft 6.1 m.

Type: Ship. MMSI: 548767000.

Date/timePositionNaut miles runAvg speedWind from/ knotsBaromVisibWave heightAir tempDewpointWater temp
2018-Feb-14 22:31N 45°06' E 036°37'0 3.0
2018-Feb-14 22:30N 45°06' E 036°37'41412.3
2018-Feb-13 12:49N 41°01' E 029°00'310.8
2018-Feb-13 12:30N 40°58' E 028°60'612.2
2018-Feb-13 12:00N 40°52' E 028°56'3 2.7
2018-Feb-13 11:03N 40°50' E 028°55'0 1.3
2018-Feb-13 10:58N 40°50' E 028°55'1 1.0
2018-Feb-13 10:27N 40°50' E 028°56'1 1.9
2018-Feb-13 09:58N 40°49' E 028°56'1 2.8
2018-Feb-13 09:28N 40°49' E 028°54'1 1.1
2018-Feb-13 08:53N 40°49' E 028°54'0 0.8
2018-Feb-13 08:26N 40°49' E 028°54'0 0.6
2018-Feb-13 07:54N 40°49' E 028°54'1 1.2
2018-Feb-13 07:23N 40°50' E 028°55'0 0.9
2018-Feb-13 06:57N 40°50' E 028°55'  
2018-Feb-10 19:00N 36°19' E 014°52'714.2
2018-Feb-10 18:30N 36°22' E 014°44'714.4
2018-Feb-10 18:00N 36°26' E 014°36'714.7
2018-Feb-10 17:31N 36°29' E 014°28'714.6
2018-Feb-10 17:00N 36°33' E 014°20'714.8
2018-Feb-10 16:30N 36°36' E 014°12'  
2018-Feb-06 00:47N 37°07' E 004°21'413.6
2018-Feb-06 00:29N 37°07' E 004°16'1313.6
2018-Feb-05 23:30N 37°09' E 003°60'612.9
2018-Feb-05 23:00N 37°09' E 003°52'612.6
2018-Feb-05 22:30N 37°08' E 003°44'  

Dump ship's entire track history